createdAt,value
2018-04-16T00:00:15.837Z,58.60
2018-04-16T00:02:44.059Z,58.60
2018-04-16T00:05:11.521Z,58.60
2018-04-16T00:07:38.968Z,58.50
2018-04-16T00:10:06.422Z,58.50
2018-04-16T00:12:33.879Z,58.50
2018-04-16T00:15:01.337Z,58.50
2018-04-16T00:17:28.784Z,58.50
2018-04-16T00:19:56.244Z,58.50
2018-04-16T00:22:23.700Z,58.50
2018-04-16T00:24:51.155Z,58.30
2018-04-16T00:27:18.606Z,58.40
2018-04-16T00:29:46.065Z,58.50
2018-04-16T00:32:19.079Z,58.30
2018-04-16T00:34:52.280Z,58.30
2018-04-16T00:37:25.539Z,58.30
2018-04-16T00:39:58.617Z,58.30
2018-04-16T00:42:31.829Z,58.30
2018-04-16T00:45:05.124Z,58.90
2018-04-16T00:47:38.409Z,58.30
2018-04-16T00:50:11.710Z,58.30
2018-04-16T00:52:44.942Z,58.30
2018-04-16T00:55:18.723Z,58.20
2018-04-16T00:57:51.992Z,58.20
2018-04-16T01:00:25.192Z,58.20
2018-04-16T01:02:58.444Z,58.20
2018-04-16T01:05:31.592Z,58.20
2018-04-16T01:08:04.853Z,58.20
2018-04-16T01:10:38.083Z,58.20
2018-04-16T01:13:11.310Z,58.20
2018-04-16T01:15:44.516Z,58.20
2018-04-16T01:18:17.740Z,58.20
2018-04-16T01:20:50.893Z,58.20
2018-04-16T01:23:24.176Z,58.10
2018-04-16T01:25:57.384Z,58.00
2018-04-16T01:28:30.580Z,58.00
2018-04-16T01:31:03.731Z,58.10
2018-04-16T01:33:37.568Z,58.70
2018-04-16T01:36:10.791Z,58.00
2018-04-16T01:38:43.891Z,58.00
2018-04-16T01:41:17.124Z,58.10
2018-04-16T01:43:50.348Z,58.00
2018-04-16T01:46:23.419Z,58.00
2018-04-16T01:48:56.644Z,57.90
2018-04-16T01:51:29.913Z,58.00
2018-04-16T01:54:03.117Z,57.90
2018-04-16T01:56:36.264Z,57.90
2018-04-16T01:59:09.476Z,57.90
2018-04-16T02:01:42.672Z,57.90
2018-04-16T02:04:15.888Z,57.90
2018-04-16T02:06:49.164Z,58.50
2018-04-16T02:09:22.368Z,58.50
2018-04-16T02:11:55.603Z,57.90
2018-04-16T02:14:28.688Z,58.50
2018-04-16T02:17:02.493Z,57.80
2018-04-16T02:19:35.668Z,58.50
2018-04-16T02:22:09.591Z,57.80
2018-04-16T02:24:42.799Z,57.80
2018-04-16T02:27:15.891Z,57.80
2018-04-16T02:29:49.106Z,57.80
2018-04-16T02:32:22.365Z,57.80
2018-04-16T02:38:11.081Z,57.70
2018-04-16T02:40:44.256Z,58.40
2018-04-16T02:43:17.390Z,57.70
2018-04-16T02:45:50.499Z,57.80
2018-04-16T02:48:23.621Z,57.80
2018-04-16T02:50:56.891Z,57.80
2018-04-16T02:53:30.025Z,57.80
2018-04-16T02:56:03.878Z,57.80
2018-04-16T02:58:36.988Z,57.80
2018-04-16T03:01:10.105Z,57.70
2018-04-16T03:03:43.237Z,57.70
2018-04-16T03:06:16.330Z,57.70
2018-04-16T03:08:49.576Z,57.60
2018-04-16T03:11:22.777Z,57.70
2018-04-16T03:13:56.665Z,57.80
2018-04-16T03:16:29.876Z,57.70
2018-04-16T03:19:03.150Z,57.80
2018-04-16T03:21:36.243Z,57.80
2018-04-16T03:24:09.344Z,57.80
2018-04-16T03:26:42.526Z,57.80
2018-04-16T03:32:20.108Z,57.80
2018-04-16T03:34:53.256Z,57.90
2018-04-16T03:37:26.419Z,57.90
2018-04-16T03:39:59.560Z,57.80
2018-04-16T03:42:32.688Z,57.80
2018-04-16T03:45:05.931Z,57.90
2018-04-16T03:47:39.281Z,57.80
2018-04-16T03:50:12.616Z,57.80
2018-04-16T03:52:56.632Z,57.80
2018-04-16T03:55:27.980Z,57.80
2018-04-16T03:57:55.452Z,57.80
2018-04-16T04:00:23.072Z,57.80
2018-04-16T04:02:50.580Z,57.80
2018-04-16T04:05:18.031Z,57.70
2018-04-16T04:07:45.584Z,57.80
2018-04-16T04:10:13.044Z,57.80
2018-04-16T04:12:40.496Z,57.70
2018-04-16T04:15:07.976Z,57.70
2018-04-16T04:17:35.728Z,57.70
2018-04-16T04:20:03.183Z,57.70
2018-04-16T04:22:42.366Z,57.70
2018-04-16T04:25:21.752Z,57.60
2018-04-16T04:28:00.964Z,57.70
2018-04-16T04:30:35.099Z,57.70
2018-04-16T04:33:02.864Z,57.70
2018-04-16T04:35:30.513Z,57.60
2018-04-16T04:37:57.976Z,55.40
2018-04-16T04:40:25.440Z,52.30
2018-04-16T04:42:52.924Z,50.40
2018-04-16T04:45:20.506Z,50.60
2018-04-16T04:47:48.220Z,49.50
2018-04-16T04:50:15.887Z,50.60
2018-04-16T04:52:43.356Z,53.90
2018-04-16T04:55:10.909Z,54.10
2018-04-16T04:57:38.381Z,52.90
2018-04-16T05:00:06.128Z,53.50
2018-04-16T05:02:33.580Z,52.80
2018-04-16T05:05:01.236Z,54.00
2018-04-16T05:07:28.816Z,54.00
2018-04-16T05:09:56.295Z,53.80
2018-04-16T05:12:24.031Z,54.00
2018-04-16T05:14:51.490Z,54.70
2018-04-16T05:17:19.015Z,54.50
2018-04-16T05:19:46.572Z,54.80
2018-04-16T05:22:14.199Z,55.70
2018-04-16T05:24:41.944Z,54.80
2018-04-16T05:27:09.408Z,55.00
2018-04-16T05:29:36.881Z,54.90
2018-04-16T05:32:04.650Z,55.00
2018-04-16T05:34:32.421Z,55.20
2018-04-16T05:37:00.000Z,55.20
2018-04-16T05:39:27.469Z,55.20
2018-04-16T05:41:55.077Z,55.30
2018-04-16T05:44:22.841Z,55.40
2018-04-16T05:46:50.300Z,55.40
2018-04-16T05:49:17.928Z,55.00
2018-04-16T05:51:45.441Z,54.90
2018-04-16T05:54:12.975Z,55.20
2018-04-16T05:56:40.744Z,55.60
2018-04-16T05:59:08.368Z,55.70
2018-04-16T06:01:35.900Z,55.80
2018-04-16T06:04:03.419Z,55.90
2018-04-16T06:06:31.221Z,56.00
2018-04-16T06:08:58.813Z,56.10
2018-04-16T06:11:26.428Z,56.10
2018-04-16T06:13:54.044Z,56.10
2018-04-16T06:16:21.524Z,56.10
2018-04-16T06:18:49.097Z,56.10
2018-04-16T06:21:16.849Z,56.20
2018-04-16T06:23:44.325Z,56.20
2018-04-16T06:26:11.771Z,56.20
2018-04-16T06:28:39.541Z,56.20
2018-04-16T06:31:07.014Z,56.20
2018-04-16T06:33:34.667Z,56.30
2018-04-16T06:36:02.125Z,56.30
2018-04-16T06:38:29.580Z,56.30
2018-04-16T06:40:58.059Z,56.30
2018-04-16T06:43:25.500Z,56.30
2018-04-16T06:45:52.956Z,56.30
2018-04-16T06:48:20.595Z,56.30
2018-04-16T06:50:48.195Z,56.30
2018-04-16T06:53:15.651Z,56.30
2018-04-16T06:55:43.312Z,56.30
2018-04-16T06:58:10.760Z,56.30
2018-04-16T07:00:38.347Z,56.30
2018-04-16T07:03:06.100Z,56.30
2018-04-16T07:05:33.752Z,56.30
2018-04-16T07:08:01.325Z,56.30
2018-04-16T07:10:28.792Z,56.20
2018-04-16T07:12:56.551Z,56.50
2018-04-16T07:15:24.176Z,56.50
2018-04-16T07:17:51.634Z,56.50
2018-04-16T07:20:19.271Z,56.50
2018-04-16T07:22:46.752Z,56.40
2018-04-16T07:25:14.311Z,56.60
2018-04-16T07:27:41.798Z,56.70
2018-04-16T07:30:09.303Z,56.50
2018-04-16T07:32:36.760Z,56.50
2018-04-16T07:35:04.291Z,56.50
2018-04-16T07:37:32.051Z,56.60
2018-04-16T07:39:59.819Z,56.60
2018-04-16T07:42:27.484Z,56.50
2018-04-16T07:44:55.040Z,56.50
2018-04-16T07:47:22.496Z,56.50
2018-04-16T07:49:49.955Z,56.50
2018-04-16T07:52:17.412Z,56.50
2018-04-16T07:54:44.880Z,56.50
2018-04-16T07:57:12.636Z,56.50
2018-04-16T07:59:40.077Z,56.50
2018-04-16T08:02:07.552Z,56.50
2018-04-16T08:04:35.028Z,56.50
2018-04-16T08:07:02.488Z,57.10
2018-04-16T08:09:30.215Z,56.50
2018-04-16T08:11:57.680Z,56.60
2018-04-16T08:14:25.139Z,56.50
2018-04-16T08:16:52.903Z,56.50
2018-04-16T08:19:20.551Z,56.50
2018-04-16T08:21:48.004Z,56.50
2018-04-16T08:24:15.487Z,56.50
2018-04-16T08:26:43.051Z,56.50
2018-04-16T08:29:10.788Z,56.60
2018-04-16T08:31:38.264Z,56.50
2018-04-16T08:34:05.724Z,56.50
2018-04-16T08:36:33.192Z,56.50
2018-04-16T08:39:00.647Z,56.60
2018-04-16T08:41:28.321Z,56.60
2018-04-16T08:43:55.783Z,56.60
2018-04-16T08:46:23.319Z,56.60
2018-04-16T08:48:50.976Z,56.60
2018-04-16T08:51:18.431Z,56.60
2018-04-16T08:53:46.008Z,56.60
2018-04-16T08:56:13.460Z,56.60
2018-04-16T08:58:40.915Z,56.50
2018-04-16T09:01:08.565Z,56.60
2018-04-16T09:03:36.153Z,56.50
2018-04-16T09:06:03.602Z,56.60
2018-04-16T09:08:31.367Z,56.50
2018-04-16T09:10:58.834Z,56.50
2018-04-16T09:13:26.288Z,56.50
2018-04-16T09:15:53.743Z,56.50
2018-04-16T09:18:21.217Z,56.50
2018-04-16T09:20:48.725Z,56.60
2018-04-16T09:23:16.222Z,56.60
2018-04-16T09:25:43.752Z,56.60
2018-04-16T09:28:11.340Z,56.60
2018-04-16T09:30:38.984Z,56.50
2018-04-16T09:33:06.519Z,56.60
2018-04-16T09:35:33.927Z,56.60
2018-04-16T09:38:01.426Z,56.50
2018-04-16T09:40:28.859Z,56.60
2018-04-16T09:42:56.412Z,56.60
2018-04-16T09:45:24.023Z,56.50
2018-04-16T09:47:51.497Z,56.90
2018-04-16T09:50:19.109Z,57.30
2018-04-16T09:52:46.810Z,57.00
2018-04-16T09:55:14.264Z,56.70
2018-04-16T09:57:41.722Z,56.70
2018-04-16T10:00:09.225Z,56.70
2018-04-16T10:02:36.705Z,56.60
2018-04-16T10:05:04.324Z,56.70
2018-04-16T10:07:32.543Z,56.80
2018-04-16T10:10:00.283Z,56.70
2018-04-16T10:12:27.928Z,56.80
2018-04-16T10:14:55.457Z,56.80
2018-04-16T10:17:22.909Z,56.30
2018-04-16T10:19:50.373Z,56.00
2018-04-16T10:22:17.819Z,56.30
2018-04-16T10:24:45.280Z,56.50
2018-04-16T10:27:13.501Z,56.50
2018-04-16T10:29:40.961Z,56.70
2018-04-16T10:32:08.411Z,56.60
2018-04-16T10:34:35.871Z,56.60
2018-04-16T10:37:03.323Z,56.50
2018-04-16T10:39:31.030Z,56.50
2018-04-16T10:41:58.475Z,56.50
2018-04-16T10:44:25.963Z,56.40
2018-04-16T10:46:53.439Z,56.40
2018-04-16T10:49:21.172Z,56.40
2018-04-16T10:51:48.827Z,56.50
2018-04-16T10:54:17.082Z,56.50
2018-04-16T10:56:44.538Z,56.50
2018-04-16T10:59:12.214Z,56.40
2018-04-16T11:01:39.766Z,56.40
2018-04-16T11:04:08.085Z,56.40
2018-04-16T11:06:35.778Z,56.40
2018-04-16T11:09:03.655Z,56.40
2018-04-16T11:11:31.392Z,56.40
2018-04-16T11:13:58.924Z,56.30
2018-04-16T11:16:26.713Z,56.30
2018-04-16T11:18:55.064Z,56.30
2018-04-16T11:21:23.346Z,57.70
2018-04-16T11:23:50.887Z,57.60
2018-04-16T11:26:19.349Z,58.50
2018-04-16T11:28:46.931Z,58.40
2018-04-16T11:31:14.607Z,57.60
2018-04-16T11:33:42.244Z,57.70
2018-04-16T11:36:10.548Z,58.30
2018-04-16T11:38:38.122Z,58.20
2018-04-16T11:41:06.485Z,57.40
2018-04-16T11:43:34.051Z,57.40
2018-04-16T11:46:01.628Z,59.10
2018-04-16T11:48:29.171Z,60.50
2018-04-16T11:50:56.745Z,58.60
2018-04-16T11:53:24.353Z,58.00
2018-04-16T11:55:52.211Z,58.10
2018-04-16T11:58:19.826Z,58.10
2018-04-16T12:00:47.538Z,58.20
2018-04-16T12:03:15.611Z,58.10
2018-04-16T12:05:43.220Z,57.90
2018-04-16T12:08:10.752Z,57.90
2018-04-16T12:10:38.328Z,57.80
2018-04-16T12:13:06.251Z,57.80
2018-04-16T12:15:33.899Z,57.30
2018-04-16T12:18:01.556Z,57.20
2018-04-16T12:20:29.077Z,57.30
2018-04-16T12:22:58.314Z,57.30
2018-04-16T12:25:25.835Z,57.30
2018-04-16T12:27:53.437Z,57.30
2018-04-16T12:30:20.986Z,57.10
2018-04-16T12:32:49.294Z,57.10
2018-04-16T12:35:17.228Z,57.10
2018-04-16T12:37:44.852Z,57.10
2018-04-16T12:40:12.464Z,57.20
2018-04-16T12:42:40.067Z,57.10
2018-04-16T12:45:07.845Z,57.00
2018-04-16T12:47:35.375Z,58.70
2018-04-16T12:50:02.916Z,58.60
2018-04-16T12:52:30.511Z,58.00
2018-04-16T12:54:58.489Z,57.60
2018-04-16T12:57:26.034Z,57.90
2018-04-16T12:59:53.596Z,57.40
2018-04-16T13:02:21.134Z,57.40
2018-04-16T13:04:48.708Z,57.40
2018-04-16T13:07:16.261Z,58.10
2018-04-16T13:09:43.828Z,57.80
2018-04-16T13:12:11.978Z,57.70
2018-04-16T13:14:39.579Z,58.10
2018-04-16T13:17:07.291Z,57.70
2018-04-16T13:19:35.234Z,57.70
2018-04-16T13:22:02.890Z,57.60
2018-04-16T13:24:30.444Z,57.50
2018-04-16T13:26:58.251Z,57.60
2018-04-16T13:29:27.522Z,57.50
2018-04-16T13:31:55.270Z,57.50
2018-04-16T13:34:22.819Z,57.10
2018-04-16T13:36:50.329Z,57.40
2018-04-16T13:39:17.841Z,57.50
2018-04-16T13:41:45.960Z,57.60
2018-04-16T13:44:13.576Z,57.60
2018-04-16T13:46:41.201Z,57.60
2018-04-16T13:49:08.809Z,57.40
2018-04-16T13:51:36.278Z,56.90
2018-04-16T13:54:03.755Z,57.00
2018-04-16T13:56:31.218Z,57.00
2018-04-16T13:58:59.072Z,57.00
2018-04-16T14:01:26.630Z,57.10
2018-04-16T14:03:54.454Z,57.10
2018-04-16T14:06:21.965Z,57.10
2018-04-16T14:08:49.516Z,57.10
2018-04-16T14:11:17.041Z,57.10
2018-04-16T14:13:44.741Z,57.10
2018-04-16T14:16:12.320Z,57.10
2018-04-16T14:18:40.751Z,57.10
2018-04-16T14:21:08.316Z,57.10
2018-04-16T14:23:35.910Z,57.10
2018-04-16T14:26:03.449Z,57.10
2018-04-16T14:28:31.775Z,57.10
2018-04-16T14:31:00.202Z,57.10
2018-04-16T14:33:27.682Z,57.10
2018-04-16T14:35:55.277Z,57.10
2018-04-16T14:38:22.887Z,57.00
2018-04-16T14:40:50.633Z,57.00
2018-04-16T14:43:18.848Z,57.00
2018-04-16T14:45:46.489Z,57.00
2018-04-16T14:48:14.263Z,57.10
2018-04-16T14:50:42.671Z,57.10
2018-04-16T14:53:10.511Z,57.10
2018-04-16T14:55:38.068Z,57.00
2018-04-16T14:58:05.732Z,57.00
2018-04-16T15:00:33.600Z,57.00
2018-04-16T15:03:01.146Z,57.00
2018-04-16T15:05:28.685Z,57.10
2018-04-16T15:07:56.205Z,57.00
2018-04-16T15:10:23.677Z,57.00
2018-04-16T15:12:51.436Z,57.00
2018-04-16T15:15:19.209Z,57.00
2018-04-16T15:17:46.827Z,56.90
2018-04-16T15:20:14.408Z,56.90
2018-04-16T15:22:41.876Z,56.90
2018-04-16T15:25:09.512Z,56.80
2018-04-16T15:27:36.974Z,56.80
2018-04-16T15:30:04.448Z,56.80
2018-04-16T15:32:32.017Z,56.70
2018-04-16T15:34:59.761Z,56.70
2018-04-16T15:37:27.592Z,56.60
2018-04-16T15:39:55.183Z,56.60
2018-04-16T15:42:22.667Z,56.50
2018-04-16T15:44:50.124Z,56.60
2018-04-16T15:47:17.583Z,56.50
2018-04-16T15:49:45.124Z,56.40
2018-04-16T15:52:12.771Z,56.50
2018-04-16T15:54:40.347Z,56.40
2018-04-16T15:57:07.801Z,56.30
2018-04-16T15:59:35.293Z,56.40
2018-04-16T16:02:03.024Z,56.40
2018-04-16T16:04:30.499Z,56.40
2018-04-16T16:06:58.147Z,56.40
2018-04-16T16:09:25.686Z,56.40
2018-04-16T16:11:53.103Z,56.40
2018-04-16T16:14:20.584Z,56.30
2018-04-16T16:16:48.083Z,56.30
2018-04-16T16:19:15.650Z,56.30
2018-04-16T16:21:43.213Z,56.20
2018-04-16T16:24:11.560Z,56.30
2018-04-16T16:26:39.061Z,56.30
2018-04-16T16:29:07.301Z,56.10
2018-04-16T16:31:34.923Z,56.10
2018-04-16T16:34:02.452Z,56.30
2018-04-16T16:36:30.067Z,56.40
2018-04-16T16:38:57.569Z,56.10
2018-04-16T16:41:25.033Z,56.00
2018-04-16T16:43:52.600Z,56.40
2018-04-16T16:46:20.217Z,56.50
2018-04-16T16:48:47.805Z,56.20
2018-04-16T16:51:15.465Z,56.30
2018-04-16T16:53:42.924Z,56.20
2018-04-16T16:56:10.404Z,57.10
2018-04-16T16:58:38.793Z,57.00
2018-04-16T17:01:06.258Z,57.00
2018-04-16T17:03:33.747Z,56.40
2018-04-16T17:06:01.192Z,56.40
2018-04-16T17:08:28.652Z,56.30
2018-04-16T17:10:56.115Z,56.40
2018-04-16T17:13:23.579Z,56.30
2018-04-16T17:15:51.020Z,56.70
2018-04-16T17:18:18.504Z,56.50
2018-04-16T17:20:46.011Z,56.50
2018-04-16T17:23:13.761Z,56.50
2018-04-16T17:25:41.392Z,56.50
2018-04-16T17:28:08.988Z,56.60
2018-04-16T17:30:36.472Z,56.50
2018-04-16T17:33:04.560Z,56.60
2018-04-16T17:35:32.815Z,56.60
2018-04-16T17:38:01.338Z,56.60
2018-04-16T17:40:28.939Z,56.70
2018-04-16T17:42:56.437Z,56.80
2018-04-16T17:45:23.932Z,56.80
2018-04-16T17:47:51.405Z,56.70
2018-04-16T17:50:18.860Z,56.80
2018-04-16T17:52:46.320Z,56.80
2018-04-16T17:55:13.887Z,56.80
2018-04-16T17:57:41.487Z,56.80
2018-04-16T18:00:08.937Z,56.70
2018-04-16T18:02:36.406Z,56.80
2018-04-16T18:05:03.923Z,56.90
2018-04-16T18:07:31.394Z,57.50
2018-04-16T18:09:59.956Z,56.80
2018-04-16T18:12:28.516Z,57.00
2018-04-16T18:14:56.111Z,57.00
2018-04-16T18:17:23.668Z,57.00
2018-04-16T18:19:51.339Z,57.00
2018-04-16T18:22:18.954Z,57.00
2018-04-16T18:24:46.943Z,56.90
2018-04-16T18:27:14.535Z,57.00
2018-04-16T18:29:43.071Z,56.80
2018-04-16T18:32:10.602Z,56.80
2018-04-16T18:34:40.057Z,57.00
2018-04-16T18:37:07.744Z,57.00
2018-04-16T18:39:35.346Z,57.10
2018-04-16T18:42:03.326Z,57.10
2018-04-16T18:44:31.158Z,57.30
2018-04-16T18:46:59.453Z,57.50
2018-04-16T18:49:28.138Z,57.60
2018-04-16T18:51:55.749Z,57.50
2018-04-16T18:54:23.722Z,57.70
2018-04-16T18:56:51.613Z,57.60
2018-04-16T18:59:19.276Z,57.80
2018-04-16T19:01:46.832Z,58.00
2018-04-16T19:04:15.481Z,58.10
2018-04-16T19:06:43.034Z,58.10
2018-04-16T19:09:11.384Z,58.20
2018-04-16T19:11:39.097Z,58.10
2018-04-16T19:14:07.107Z,58.60
2018-04-16T19:16:34.632Z,58.70
2018-04-16T19:19:02.331Z,58.40
2018-04-16T19:21:36.216Z,58.00
2018-04-16T19:24:03.891Z,58.00
2018-04-16T19:26:31.730Z,57.90
2018-04-16T19:28:59.421Z,57.70
2018-04-16T19:31:26.953Z,57.50
2018-04-16T19:34:00.214Z,57.40
2018-04-16T19:36:27.964Z,57.00
2018-04-16T19:38:59.618Z,57.00
2018-04-16T19:41:27.188Z,57.20
2018-04-16T19:43:55.471Z,57.20
2018-04-16T19:46:23.414Z,57.60
2018-04-16T19:52:08.841Z,57.50
2018-04-16T19:54:36.381Z,57.50
2018-04-16T19:57:13.123Z,57.80
2018-04-16T19:59:40.858Z,57.60
2018-04-16T20:02:14.164Z,57.50
2018-04-16T20:04:41.824Z,57.90
2018-04-16T20:07:09.394Z,57.50
2018-04-16T20:09:37.010Z,57.40
2018-04-16T20:12:04.749Z,57.40
2018-04-16T20:14:32.372Z,57.70
2018-04-16T20:17:00.401Z,57.70
2018-04-16T20:19:28.990Z,57.20
2018-04-16T20:21:56.596Z,57.10
2018-04-16T20:24:24.132Z,57.10
2018-04-16T20:26:51.623Z,56.80
2018-04-16T20:29:19.104Z,56.80
2018-04-16T20:31:46.728Z,56.70
2018-04-16T20:34:14.220Z,56.90
2018-04-16T20:36:41.681Z,56.90
2018-04-16T20:39:10.051Z,56.90
2018-04-16T20:41:37.744Z,56.80
2018-04-16T20:44:06.020Z,56.80
2018-04-16T20:46:33.761Z,56.80
2018-04-16T20:49:01.392Z,56.80
2018-04-16T20:51:28.989Z,56.90
2018-04-16T20:53:57.623Z,56.80
2018-04-16T20:56:25.212Z,56.90
2018-04-16T20:58:52.736Z,56.90
2018-04-16T21:01:20.304Z,56.90
2018-04-16T21:03:48.154Z,57.00
2018-04-16T21:06:15.816Z,57.00
2018-04-16T21:08:43.659Z,57.00
2018-04-16T21:11:11.137Z,57.10
2018-04-16T21:13:38.799Z,57.10
2018-04-16T21:16:06.352Z,57.10
2018-04-16T21:18:34.026Z,57.10
2018-04-16T21:21:01.557Z,57.10
2018-04-16T21:23:29.009Z,57.10
2018-04-16T21:25:56.775Z,57.10
2018-04-16T21:28:24.400Z,57.10
2018-04-16T21:30:51.937Z,57.10
2018-04-16T21:33:19.408Z,57.10
2018-04-16T21:35:46.927Z,57.00
2018-04-16T21:38:14.541Z,57.00
2018-04-16T21:40:42.108Z,57.00
2018-04-16T21:43:09.600Z,56.90
2018-04-16T21:45:37.244Z,57.00
2018-04-16T21:48:04.874Z,57.00
2018-04-16T21:50:32.332Z,57.00
2018-04-16T21:52:59.880Z,56.90
2018-04-16T21:55:28.228Z,57.00
2018-04-16T21:57:55.797Z,57.00
2018-04-16T22:00:23.346Z,57.00
2018-04-16T22:02:50.803Z,57.00
2018-04-16T22:05:18.684Z,57.00
2018-04-16T22:07:46.228Z,57.00
2018-04-16T22:10:13.742Z,56.80
2018-04-16T22:12:41.191Z,56.90
2018-04-16T22:15:08.660Z,57.00
2018-04-16T22:17:36.115Z,56.80
2018-04-16T22:20:03.595Z,56.90
2018-04-16T22:22:31.252Z,56.90
2018-04-16T22:24:58.748Z,56.80
2018-04-16T22:27:26.209Z,56.90
2018-04-16T22:29:53.751Z,56.80
2018-04-16T22:32:21.232Z,56.80
2018-04-16T22:34:48.695Z,56.80
2018-04-16T22:37:16.320Z,56.80
2018-04-16T22:39:43.780Z,56.70
2018-04-16T22:42:11.232Z,56.70
2018-04-16T22:44:38.829Z,56.70
2018-04-16T22:47:06.580Z,56.70
2018-04-16T22:49:34.135Z,56.70
2018-04-16T22:52:01.603Z,56.70
2018-04-16T22:54:29.125Z,56.70
2018-04-16T22:56:56.632Z,56.70
2018-04-16T22:59:24.182Z,56.70
2018-04-16T23:01:51.657Z,56.70
2018-04-16T23:04:19.101Z,56.70
2018-04-16T23:06:46.661Z,56.70
2018-04-16T23:09:14.324Z,56.60
2018-04-16T23:11:41.899Z,56.60
2018-04-16T23:14:10.117Z,56.70
2018-04-16T23:16:37.576Z,56.70
2018-04-16T23:19:05.051Z,56.70
2018-04-16T23:21:32.524Z,56.60
2018-04-16T23:23:59.965Z,56.70
2018-04-16T23:26:27.444Z,56.60
2018-04-16T23:28:54.897Z,56.60
2018-04-16T23:31:22.533Z,56.60
2018-04-16T23:33:50.023Z,56.60
2018-04-16T23:36:17.579Z,56.60
2018-04-16T23:38:45.032Z,56.50
2018-04-16T23:41:12.487Z,56.60
2018-04-16T23:43:40.154Z,56.60
2018-04-16T23:46:07.795Z,56.50
2018-04-16T23:48:35.404Z,56.50
2018-04-16T23:51:02.940Z,56.50
2018-04-16T23:53:30.713Z,56.50
2018-04-16T23:55:58.168Z,56.50
2018-04-16T23:58:25.627Z,56.50
